Historyczne dane pomiarowe

Dodano dane terminowe – wersja testowa.

Dane z okresu 1951-2019

Wersja bazy: 1.34 [2019-03-16, lista zmian], aktualizacja planowana na 2019-04-15

Dane meteo z obszaru Polski uzyskane na podstawie danych udostępnionych przez Instytut Meteorologii i Gospodarki Wodnej – Państwowy Instytut Badawczy.

 

Wybierz Datę:    

       

TemperaturaWilgotnośćWiatrCiśnienieOpadyŚniegCzas trwania zjawisk
 Stacja t tx tn tng RH VA  wxwx mslp ppp RRR   cm mm wxwxwxwxwxwxwx
1994-08-14 12.7 17.2 10.9 9.1-- 2.3 3.3---- 12.0------------
1994-08-13 15.7 18.0 14.6 13.9-- 4.7 2.0---- 4.2------------
1994-08-12 17.1 22.5 15.8 11.4-- 5.3 0.7---- 6.0------------
1994-08-11 20.6 26.5 16.9 13.7-- 7.3 2.7---- 1.2------------
1994-08-10 20.9 29.5 13.1 9.4-- 0.7 0.7---- 0.0------------
1994-08-09 21.4 28.5 16.3 13.4-- 4.3 0.7---- 0.0------------
1994-08-08 21.6 27.5 17.1 10.4-- 2.0 0.7---- 0.0------------
1994-08-07 22.2 27.5 17.6 13.1-- 2.0 0.7---- 0.0------------
1994-08-06 24.9 31.0 19.7 16.1-- 3.7 1.3---- 0.0------------
1994-08-05 24.8 34.0 13.9 10.4-- 0.0 0.0---- 0.0------------
1994-08-04 21.4 30.4 12.0 8.4-- 0.0 0.0---- 0.0------------
1994-08-03 23.3 29.5 19.4 15.4-- 0.0 2.3---- 0.0------------
1994-08-02 25.5 31.8 20.4 15.9-- 0.0 2.0---- 0.0------------
1994-08-01 29.0 37.2 20.5 16.4-- 0.7 1.3---- 0.0------------
1994-07-31 27.6 37.6 18.0 13.9-- 1.0 1.7---- 0.0------------
1994-07-30 24.2 38.0 17.8 13.3-- 0.0 0.7---- 0.0------------
1994-07-29 27.0 36.5 17.2 13.4-- 0.0 0.0---- 0.0------------
1994-07-28 27.1 35.1 18.4 13.9-- 0.0 0.7---- 0.0------------
1994-07-27 25.8 33.1 20.2 16.0-- 3.0 0.3---- 0.0------------
1994-07-26 25.4 35.0 16.6 12.8-- 0.0 1.3---- 0.0------------
1994-07-25 24.5 34.1 13.2 9.4-- 0.0 1.3---- 0.0------------
1994-07-24 24.3 32.5 14.5 10.7-- 0.0 0.7---- 0.0------------
1994-07-23 23.4 31.5 13.6 7.9-- 0.0 1.7---- 0.0------------
1994-07-22 22.1 30.3 11.9 6.3-- 0.0 1.7---- 0.0------------
1994-07-21 21.5 27.6 8.7 5.6-- 0.0 0.3---- 0.0------------
1994-07-20 18.2 26.0 7.8 4.4-- 0.0 1.3---- 0.0------------
1994-07-19 19.1 24.2 12.3 8.9-- 0.3 2.3---- 0.0------------
1994-07-18 19.2 25.6 13.3 9.4-- 0.0 1.3---- 0.0------------
1994-07-17 20.7 27.7 14.1 9.9-- 0.0 1.7---- 0.0------------
1994-07-16 21.6 27.2 17.5 13.9-- 2.7 1.0---- 0.0------------
1994-07-15 24.3 32.0 18.0 14.7-- 0.0 1.7---- 0.0------------
1994-07-14 23.5 31.8 13.6 10.4-- 0.0 1.3---- 0.0------------
1994-07-13 23.8 30.5 14.5 11.9-- 0.0 2.0---- 0.0------------
1994-07-12 22.3 29.2 12.9 11.1-- 0.0 2.0---- 0.0------------
1994-07-11 21.3 29.0 12.7 9.5-- 0.0 1.0---- 0.0------------
1994-07-10 19.5 26.4 13.8 12.3-- 0.0 3.0---- 0.0------------
1994-07-09 17.5 23.0 13.7 12.9-- 2.0 3.3---- 0.0------------
1994-07-08 14.6 18.2 13.5 13.4-- 8.0 2.3---- 21.6------------
1994-07-07 17.3 25.8 9.5 5.2-- 2.7 2.7---- 36.0------------
1994-07-06 20.2 25.5 12.6 9.5-- 0.0 1.0---- 0.0------------
1994-07-05 18.4 22.5 13.5 10.5-- 1.7 1.0---- 0.0------------
1994-07-04 20.5 28.9 11.6 8.6-- 0.0 3.0---- 0.0------------
1994-07-03 20.3 28.0 10.6 7.4-- 0.0 3.0---- 0.0------------
1994-07-02 18.1 25.3 8.6 4.9-- 0.0 2.0---- 0.0------------
1994-07-01 17.1 23.0 10.3 6.9-- 0.0 1.0---- 0.0------------
1994-06-30 19.3 26.2 16.9 17.1-- 1.3 3.7---- 0.0------------
1994-06-29 25.4 34.5 14.5 12.7-- 0.0 0.3---- 19.4------------
1994-06-28 22.5 30.4 14.4 11.1-- 0.0 0.3---- 0.0------------
1994-06-27 23.0 29.8 15.5 11.9-- 0.0 0.7---- 0.0------------
1994-06-26 23.3 30.8 14.0 8.4-- 0.7 1.0---- 0.0------------
1994-06-25 17.2 26.0 5.2 1.3-- 0.0 2.3---- 0.0------------
1994-06-24 14.5 20.6 8.5 6.2-- 0.0 2.0---- 0.0------------
1994-06-23 15.3 20.9 12.0 9.9-- 0.0 7.0---- 0.0------------
1994-06-22 20.1 23.4 17.5 15.4-- 0.0 5.3---- 0.0------------
1994-06-21 16.1 23.8 6.4 3.7-- 0.0 0.0---- 0.0------------
1994-06-20 16.1 19.6 12.9 11.3-- 0.3 3.0---- 0.0------------
1994-06-19 16.3 21.5 11.8 11.0-- 7.3 2.0---- 0.0------------
1994-06-18 12.2 18.4 6.3 2.9-- 2.7 1.0---- 4.7------------
1994-06-17 10.2 14.4 7.2 5.6-- 4.7 2.7---- 0.2------------
1994-06-16 12.2 14.8 10.0 9.9-- 2.7 3.3---- 3.6------------
488.1 ms

 

Źródłem pochodzenia danych jest Instytut Meteorologii i Gospodarki Wodnej – Państwowy Instytut Badawczy. Dane Instytutu Meteorologii i Gospodarki Wodnej – Państwowego Instytutu Badawczego zostały przetworzone.

Dane źródłowe można odnaleźć na stronie https://dane.imgw.pl